createdAt,value
2022-12-18T00:03:04.928Z,11.55
2022-12-18T00:18:07.589Z,11.98
2022-12-18T00:33:09.548Z,14.15
2022-12-18T00:48:11.509Z,11.40
2022-12-18T01:03:16.476Z,10.98
2022-12-18T01:18:18.830Z,11.35
2022-12-18T01:33:20.770Z,11.63
2022-12-18T01:48:22.768Z,9.50
2022-12-18T02:03:24.934Z,9.00
2022-12-18T02:18:36.474Z,10.07
2022-12-18T02:33:40.933Z,8.82
2022-12-18T02:48:43.181Z,9.10
2022-12-18T03:04:02.110Z,8.77
2022-12-18T03:19:10.268Z,9.20
2022-12-18T03:34:23.023Z,10.37
2022-12-18T03:49:33.590Z,9.70
2022-12-18T04:04:38.622Z,10.55
2022-12-18T04:19:40.472Z,15.23
2022-12-18T04:34:42.982Z,23.15
2022-12-18T04:49:44.882Z,23.83
2022-12-18T05:04:46.803Z,18.95
2022-12-18T05:19:48.744Z,21.80
2022-12-18T05:34:50.621Z,21.20
2022-12-18T05:49:52.502Z,20.55
2022-12-18T06:04:54.412Z,23.48
2022-12-18T06:19:56.679Z,23.33
2022-12-18T06:34:58.610Z,20.83
2022-12-18T06:50:00.504Z,18.45
2022-12-18T07:05:07.479Z,19.50
2022-12-18T07:20:12.420Z,18.20
2022-12-18T07:35:14.873Z,17.65
2022-12-18T07:50:17.025Z,19.00
2022-12-18T08:05:18.953Z,19.10
2022-12-18T08:20:20.822Z,19.70
2022-12-18T08:35:22.843Z,18.65
2022-12-18T08:50:24.902Z,20.80
2022-12-18T09:05:26.873Z,21.88
2022-12-18T09:20:31.081Z,21.27
2022-12-18T09:35:32.961Z,20.23
2022-12-18T09:50:40.641Z,22.00
2022-12-18T10:05:51.322Z,22.67
2022-12-18T10:20:57.324Z,22.88
2022-12-18T10:35:59.279Z,23.90
2022-12-18T10:51:10.726Z,23.65
2022-12-18T11:06:17.008Z,25.63
2022-12-18T11:21:19.001Z,27.10
2022-12-18T11:36:22.559Z,25.75
2022-12-18T11:51:43.048Z,24.25
2022-12-18T12:07:03.991Z,23.30
2022-12-18T12:22:14.906Z,22.27
2022-12-18T12:37:39.762Z,24.08
2022-12-18T12:52:46.643Z,20.40
2022-12-18T13:08:00.607Z,23.05
2022-12-18T13:23:03.264Z,21.15
2022-12-18T13:38:27.503Z,20.58
2022-12-18T13:53:35.013Z,19.48
2022-12-18T14:08:41.824Z,20.17
2022-12-18T14:23:44.371Z,20.38
2022-12-18T14:38:55.065Z,25.10
2022-12-18T14:54:02.305Z,21.13
2022-12-18T15:09:24.246Z,20.27
2022-12-18T15:24:31.827Z,20.27
2022-12-18T15:39:33.784Z,22.08
2022-12-18T15:54:54.066Z,20.02
2022-12-18T16:09:57.262Z,23.63
2022-12-18T16:24:59.506Z,23.27
2022-12-18T16:40:01.386Z,20.80
2022-12-18T16:55:04.208Z,20.38
2022-12-18T17:10:07.818Z,20.35
2022-12-18T17:25:10.264Z,22.77
2022-12-18T17:40:12.409Z,20.80
2022-12-18T17:55:14.346Z,22.13
2022-12-18T18:10:16.446Z,22.55
2022-12-18T18:25:18.427Z,21.98
2022-12-18T18:40:21.684Z,32.95
2022-12-18T18:55:25.634Z,27.10
2022-12-18T19:10:29.308Z,29.30
2022-12-18T19:25:40.607Z,23.88
2022-12-18T19:40:44.428Z,22.40
2022-12-18T19:55:46.368Z,21.20
2022-12-18T20:10:50.388Z,19.05
2022-12-18T20:25:57.487Z,19.13
2022-12-18T20:41:02.109Z,18.58
2022-12-18T20:56:13.709Z,18.20
2022-12-18T21:11:38.028Z,17.67
2022-12-18T21:26:46.440Z,18.75
2022-12-18T21:42:07.228Z,18.50
2022-12-18T21:57:11.307Z,19.45
2022-12-18T22:12:34.269Z,19.05
2022-12-18T22:27:36.428Z,14.40
2022-12-18T22:42:38.349Z,15.52
2022-12-18T22:57:41.164Z,16.33
2022-12-18T23:12:49.988Z,14.93
2022-12-18T23:27:52.007Z,13.50
2022-12-18T23:42:53.907Z,13.02
2022-12-18T23:57:55.893Z,12.73
